createdAt,value
2022-10-17T00:03:34.463Z,11.4
2022-10-17T00:13:36.106Z,11.3
2022-10-17T00:23:38.524Z,11.2
2022-10-17T00:33:40.215Z,11.1
2022-10-17T00:43:42.340Z,11.1
2022-10-17T00:53:44.207Z,11
2022-10-17T01:03:46.102Z,10.9
2022-10-17T01:13:48.211Z,10.8
2022-10-17T01:23:50.323Z,10.8
2022-10-17T01:33:52.225Z,10.8
2022-10-17T01:43:54.050Z,10.6
2022-10-17T01:53:56.267Z,10.5
2022-10-17T02:03:57.966Z,10.5
2022-10-17T02:14:00.016Z,10.5
2022-10-17T02:24:02.535Z,10.4
2022-10-17T02:34:04.473Z,10.2
2022-10-17T02:44:06.189Z,10.3
2022-10-17T02:44:28.118Z,10.2
2022-10-17T02:54:15.165Z,10.2
2022-10-17T03:04:17.268Z,10.2
2022-10-17T03:14:19.248Z,10.2
2022-10-17T03:24:21.484Z,10.1
2022-10-17T03:44:25.821Z,10
2022-10-17T03:54:28.204Z,10
2022-10-17T04:04:30.415Z,10
2022-10-17T04:14:32.489Z,10
2022-10-17T04:24:34.519Z,10
2022-10-17T04:34:37.029Z,10
2022-10-17T04:44:39.488Z,10
2022-10-17T04:54:41.281Z,10
2022-10-17T05:04:43.571Z,10
2022-10-17T05:14:46.136Z,10
2022-10-17T05:24:48.251Z,10.1
2022-10-17T05:34:50.233Z,10.2
2022-10-17T05:44:52.366Z,10.4
2022-10-17T06:04:56.499Z,10.7
2022-10-17T06:14:58.174Z,10.8
2022-10-17T06:25:00.070Z,11.1
2022-10-17T06:35:02.650Z,11.1
2022-10-17T06:45:04.492Z,11.3
2022-10-17T06:55:06.194Z,11.7
2022-10-17T07:05:08.090Z,12.1
2022-10-17T07:15:10.177Z,13.2
2022-10-17T07:25:12.135Z,14.1
2022-10-17T07:35:14.692Z,14.7
2022-10-17T07:45:17.089Z,15.3
2022-10-17T07:55:19.053Z,15.6
2022-10-17T08:05:21.235Z,16.3
2022-10-17T08:45:29.122Z,16.5
2022-10-17T09:05:33.690Z,17.7
2022-10-17T09:35:40.201Z,19.5
2022-10-17T09:55:43.981Z,20.1
2022-10-17T10:15:47.818Z,20.1
2022-10-17T10:35:51.672Z,19.8
2022-10-17T10:45:54.163Z,19.5
2022-10-17T10:55:56.616Z,19.9
2022-10-17T11:16:00.817Z,20.7
2022-10-17T11:26:02.567Z,20.2
2022-10-17T11:36:04.987Z,19.8
2022-10-17T11:56:08.705Z,19.6
2022-10-17T12:06:11.088Z,20
2022-10-17T12:16:15.862Z,20.2
2022-10-17T13:06:23.253Z,19
2022-10-17T13:16:24.929Z,18.7
2022-10-17T13:26:27.442Z,18.7
2022-10-17T13:46:37.720Z,18.5
2022-10-17T14:06:36.931Z,18.2
2022-10-17T14:16:39.451Z,18.2
2022-10-17T14:26:41.936Z,18.3
2022-10-17T14:46:50.415Z,18.6
2022-10-17T14:56:49.021Z,18.4
2022-10-17T15:06:51.400Z,18.3
2022-10-17T15:16:53.406Z,18.2
2022-10-17T15:36:56.774Z,18.3
2022-10-17T15:46:58.729Z,17.9
2022-10-17T15:57:01.364Z,17.7
2022-10-17T16:07:03.159Z,17.5
2022-10-17T16:17:04.950Z,17.4
2022-10-17T16:27:06.769Z,17.2
2022-10-17T16:37:09.305Z,17
2022-10-17T16:47:11.661Z,16.9
2022-10-17T16:57:13.678Z,16.7
2022-10-17T17:07:15.457Z,16.4
2022-10-17T17:17:24.355Z,16.4
2022-10-17T17:27:19.991Z,16.3
2022-10-17T17:37:21.774Z,16.1
2022-10-17T17:57:26.043Z,15.9
2022-10-17T18:07:28.575Z,15.9
2022-10-17T18:17:31.143Z,15.8
2022-10-17T18:27:33.421Z,15.7
2022-10-17T18:37:35.854Z,15.6
2022-10-17T19:37:49.084Z,15.1
2022-10-17T19:57:52.804Z,15
2022-10-17T20:07:55.109Z,15
2022-10-17T20:17:57.740Z,15.1
2022-10-17T20:28:00.162Z,15
2022-10-17T20:38:02.366Z,15
2022-10-17T20:48:04.218Z,15
2022-10-17T20:58:06.619Z,14.9
2022-10-17T21:08:08.988Z,14.9
2022-10-17T21:18:10.700Z,14.9
2022-10-17T21:28:13.013Z,14.8
2022-10-17T21:38:15.127Z,14.7
2022-10-17T21:48:17.554Z,14.7
2022-10-17T21:58:19.932Z,14.6
2022-10-17T22:08:22.104Z,14.5
2022-10-17T22:18:24.372Z,14.4
2022-10-17T22:28:26.346Z,14.2
2022-10-17T22:38:28.598Z,14.2
2022-10-17T22:48:30.992Z,14.1
2022-10-17T22:58:33.464Z,14.1
2022-10-17T23:08:35.183Z,14
2022-10-17T23:18:37.014Z,14
2022-10-17T23:28:39.208Z,14
2022-10-17T23:38:41.005Z,14
2022-10-17T23:48:43.106Z,14.1
2022-10-17T23:58:45.668Z,14.1
